Time;durP1;ratioP1;P1;durP2;ratioP2;P2;SDS_P1;SDS_P2;PMS_P1;PMS_P2;Temp;Humidity;BMP_temperature;BMP_pressure;BME280_temperature;BME280_humidity;BME280_pressure;Samples;Min_cycle;Max_cycle;Signal;HPM_P1;HPM_P2
2021/04/10 00:01:42;;;;;;;8.88;5.53;;;;;;;9.22;43.50;100720.91;7821201;29;20032;-63
2021/04/10 00:05:32;;;;;;;12.43;5.75;;;;;;;9.21;43.56;100726.22;7821629;29;20118;-62
2021/04/10 00:09:23;;;;;;;10.75;5.32;;;;;;;9.17;43.54;100728.19;7811904;29;20105;-62
2021/04/10 00:13:14;;;;;;;9.35;5.28;;;;;;;9.14;43.68;100723.16;7820757;29;20043;-63
2021/04/10 00:17:04;;;;;;;9.02;5.20;;;;;;;9.13;43.70;100721.47;7805546;29;20111;-64
2021/04/10 00:20:55;;;;;;;9.98;5.10;;;;;;;9.10;43.87;100726.06;7791666;29;20531;-62
2021/04/10 00:24:45;;;;;;;6.68;4.97;;;;;;;9.09;44.00;100740.09;7790588;29;20799;-62
2021/04/10 00:28:36;;;;;;;7.90;5.70;;;;;;;9.06;44.10;100738.50;7790922;29;20477;-63
2021/04/10 00:32:27;;;;;;;10.05;4.68;;;;;;;9.03;44.24;100738.72;7790155;29;20044;-62
2021/04/10 00:36:17;;;;;;;8.32;5.13;;;;;;;9.02;44.57;100744.03;7791254;29;20428;-62
2021/04/10 00:40:09;;;;;;;10.32;5.07;;;;;;;9.00;44.25;100740.66;7790631;29;20491;-62
2021/04/10 00:44:00;;;;;;;12.18;5.95;;;;;;;8.96;44.15;100737.38;7790135;29;20481;-62
2021/04/10 00:47:50;;;;;;;7.53;5.20;;;;;;;8.96;44.68;100726.91;7811863;29;20047;-65
2021/04/10 00:51:41;;;;;;;8.18;5.53;;;;;;;8.96;44.76;100736.53;7820956;29;20042;-62
2021/04/10 00:55:33;;;;;;;9.77;5.20;;;;;;;8.92;44.70;100738.50;7820512;29;20187;-62
2021/04/10 00:59:24;;;;;;;10.90;5.60;;;;;;;8.92;44.58;100737.66;7811211;29;20064;-62
2021/04/10 01:03:16;;;;;;;7.32;5.10;;;;;;;8.90;44.87;100737.78;7810986;29;20035;-63
2021/04/10 01:07:07;;;;;;;10.70;5.90;;;;;;;8.89;44.75;100730.84;7812459;29;20041;-62
2021/04/10 01:11:11;;;;;;;9.63;5.53;;;;;;;8.87;44.93;100724.88;7819710;29;20031;-64
2021/04/10 01:15:23;;;;;;;8.40;5.82;;;;;;;8.83;44.96;100726.81;7819919;29;20455;-63
2021/04/10 01:19:21;;;;;;;9.40;5.70;;;;;;;8.81;45.22;100720.84;7819817;29;20427;-62
2021/04/10 01:23:12;;;;;;;9.20;5.18;;;;;;;8.78;45.17;100725.44;7820040;29;20122;-63
2021/04/10 01:27:17;;;;;;;9.38;5.32;;;;;;;8.76;45.17;100720.28;7820233;29;20059;-62
2021/04/10 01:31:09;;;;;;;10.93;5.45;;;;;;;8.75;45.37;100731.69;7820081;29;20122;-63
2021/04/10 01:35:15;;;;;;;10.60;6.35;;;;;;;8.69;45.50;100732.06;7820175;29;20047;-63
2021/04/10 01:39:11;;;;;;;11.07;5.63;;;;;;;8.67;45.15;100730.44;7819995;29;20046;-65
2021/04/10 01:43:03;;;;;;;12.18;5.82;;;;;;;8.66;45.44;100715.69;7815576;29;20103;-66
2021/04/10 01:46:56;;;;;;;9.68;5.80;;;;;;;8.61;45.83;100715.97;7810519;29;20067;-65
2021/04/10 01:50:50;;;;;;;11.25;6.10;;;;;;;8.60;45.71;100716.91;7778287;29;20043;-64
2021/04/10 01:54:42;;;;;;;10.65;5.28;;;;;;;8.60;45.70;100731.75;7773206;29;20078;-64
2021/04/10 01:58:36;;;;;;;7.13;5.40;;;;;;;8.56;45.78;100725.03;7777781;29;20119;-64
2021/04/10 02:02:28;;;;;;;14.82;5.60;;;;;;;8.55;45.69;100731.19;7776637;29;20378;-62
2021/04/10 02:06:20;;;;;;;9.73;5.75;;;;;;;8.52;45.91;100732.22;7794517;29;20047;-64
2021/04/10 02:10:18;;;;;;;11.57;5.45;;;;;;;8.48;45.77;100730.72;7777923;29;20052;-64
2021/04/10 02:14:22;;;;;;;10.40;6.20;;;;;;;8.43;45.88;100718.84;7776883;29;20036;-62
2021/04/10 02:18:16;;;;;;;12.75;7.05;;;;;;;8.37;45.75;100713.06;7776970;29;20036;-62
2021/04/10 02:22:06;;;;;;;15.13;7.10;;;;;;;8.32;46.02;100706.41;7793716;29;20051;-62
2021/04/10 02:26:02;;;;;;;8.85;5.80;;;;;;;8.27;45.97;100727.59;7776741;29;20028;-63
2021/04/10 02:29:54;;;;;;;9.68;6.53;;;;;;;8.22;46.07;100727.03;7776986;29;20477;-63
2021/04/10 02:33:49;;;;;;;11.38;6.00;;;;;;;8.16;46.31;100719.53;7793008;29;20040;-65
2021/04/10 02:37:40;;;;;;;12.20;6.10;;;;;;;8.13;46.02;100737.16;7788696;29;20048;-65
2021/04/10 02:41:37;;;;;;;10.05;5.63;;;;;;;8.08;45.93;100737.44;7793279;29;20039;-64
2021/04/10 02:45:28;;;;;;;11.07;6.30;;;;;;;8.00;46.20;100729.19;7778640;29;20145;-64
2021/04/10 02:49:25;;;;;;;13.10;5.90;;;;;;;8.02;46.23;100732.53;7822812;29;20032;-65
2021/04/10 02:53:17;;;;;;;8.52;5.80;;;;;;;7.98;46.48;100736.25;7823276;29;20051;-64
2021/04/10 02:57:13;;;;;;;7.10;5.28;;;;;;;7.96;46.47;100743.38;7806939;29;20094;-64
2021/04/10 03:01:08;;;;;;;7.53;5.13;;;;;;;7.92;46.18;100742.69;7814834;29;20052;-64
2021/04/10 03:05:00;;;;;;;11.52;5.78;;;;;;;7.88;46.28;100743.78;7793057;29;20116;-64
2021/04/10 03:08:52;;;;;;;12.98;5.57;;;;;;;7.86;46.34;100748.28;7789695;29;20036;-64
2021/04/10 03:12:45;;;;;;;7.85;5.38;;;;;;;7.85;46.66;100751.81;7774580;29;20024;-64
2021/04/10 03:16:39;;;;;;;6.28;4.65;;;;;;;7.83;46.60;100750.22;7774251;29;20078;-64
2021/04/10 03:20:37;;;;;;;12.52;5.45;;;;;;;7.83;46.86;100751.06;7775299;29;20091;-64
2021/04/10 03:24:28;;;;;;;10.18;5.50;;;;;;;7.82;46.92;100757.22;7783081;29;20032;-64
2021/04/10 03:28:20;;;;;;;12.63;6.40;;;;;;;7.81;47.10;100749.44;7775060;29;20044;-65
2021/04/10 03:32:12;;;;;;;9.20;5.95;;;;;;;7.82;46.73;100745.91;7774237;29;20042;-64
2021/04/10 03:36:09;;;;;;;10.02;6.20;;;;;;;7.80;47.02;100758.22;7775523;29;20069;-64
2021/04/10 03:40:03;;;;;;;9.93;5.63;;;;;;;7.79;47.24;100761.78;7794913;29;20062;-65
2021/04/10 03:43:54;;;;;;;9.20;4.35;;;;;;;7.78;47.26;100760.94;7792258;29;20061;-64
2021/04/10 03:47:46;;;;;;;10.30;5.72;;;;;;;7.77;46.88;100761.84;7811791;29;20143;-64
2021/04/10 03:51:37;;;;;;;7.53;5.40;;;;;;;7.77;47.07;100772.31;7821743;29;20414;-64
2021/04/10 03:55:29;;;;;;;11.02;6.10;;;;;;;7.76;47.16;100773.25;7814494;29;20036;-66
2021/04/10 03:59:21;;;;;;;10.73;5.32;;;;;;;7.74;47.19;100775.13;7820551;29;20035;-64
2021/04/10 04:03:15;;;;;;;9.35;5.63;;;;;;;7.70;47.37;100777.97;7810933;29;20452;-64
2021/04/10 04:07:06;;;;;;;8.80;5.43;;;;;;;7.69;47.00;100781.53;7821186;29;20043;-64
2021/04/10 04:10:57;;;;;;;9.48;5.60;;;;;;;7.66;47.62;100787.78;7821055;29;20102;-64
2021/04/10 04:14:47;;;;;;;11.07;6.35;;;;;;;7.61;47.39;100781.09;7821050;29;20043;-66
2021/04/10 04:18:38;;;;;;;8.25;5.55;;;;;;;7.63;47.48;100797.56;7811482;29;20043;-64
2021/04/10 04:22:28;;;;;;;10.48;5.63;;;;;;;7.62;47.65;100795.88;7812564;29;20032;-64
2021/04/10 04:26:19;;;;;;;8.02;5.75;;;;;;;7.60;47.24;100788.09;7821446;29;20125;-64
2021/04/10 04:30:10;;;;;;;8.02;5.72;;;;;;;7.57;47.75;100785.66;7814423;29;20412;-65
2021/04/10 04:34:01;;;;;;;11.68;6.38;;;;;;;7.54;47.50;100777.16;7818905;29;20720;-64
2021/04/10 04:37:51;;;;;;;12.88;5.97;;;;;;;7.54;47.50;100780.59;7815642;29;20036;-64
2021/04/10 04:41:42;;;;;;;9.13;5.03;;;;;;;7.51;47.75;100783.34;7816193;29;20382;-65
2021/04/10 04:45:33;;;;;;;9.02;5.80;;;;;;;7.50;47.97;100795.59;7820041;29;20127;-64
2021/04/10 04:49:23;;;;;;;8.90;5.80;;;;;;;7.49;47.78;100793.06;7820765;29;20046;-64
2021/04/10 04:53:14;;;;;;;11.10;6.05;;;;;;;7.47;48.16;100787.91;7819723;29;20036;-64
2021/04/10 04:57:05;;;;;;;7.63;5.40;;;;;;;7.47;48.07;100797.53;7821024;29;20090;-65
2021/04/10 05:00:55;;;;;;;8.70;5.40;;;;;;;7.46;48.20;100788.84;7819832;29;20168;-64
2021/04/10 05:04:46;;;;;;;11.13;5.93;;;;;;;7.45;47.73;100794.16;7819155;29;20111;-63
2021/04/10 05:08:36;;;;;;;8.00;6.13;;;;;;;7.45;48.21;100794.16;7818603;29;20038;-65
2021/04/10 05:12:27;;;;;;;8.48;5.32;;;;;;;7.44;48.36;100793.31;7822541;29;20040;-64
2021/04/10 05:16:18;;;;;;;10.70;6.35;;;;;;;7.44;48.28;100797.69;7815099;29;20103;-65
2021/04/10 05:20:08;;;;;;;12.88;5.93;;;;;;;7.44;48.12;100813.38;7795580;29;20706;-64
2021/04/10 05:23:59;;;;;;;8.63;5.95;;;;;;;7.44;48.52;100839.53;7778190;29;20028;-64
2021/04/10 05:27:51;;;;;;;7.35;6.03;;;;;;;7.45;48.56;100836.00;7795824;29;20412;-64
2021/04/10 05:31:41;;;;;;;9.60;6.15;;;;;;;7.45;48.26;100839.44;7801156;29;20076;-65
2021/04/10 05:35:32;;;;;;;8.55;6.20;;;;;;;7.45;48.48;100838.59;7825254;29;20142;-65
2021/04/10 05:39:23;;;;;;;9.43;6.60;;;;;;;7.46;48.59;100854.19;7824556;29;20087;-64
2021/04/10 05:43:13;;;;;;;9.18;6.10;;;;;;;7.45;48.59;100855.13;7824526;29;20042;-64
2021/04/10 05:47:04;;;;;;;12.45;6.68;;;;;;;7.46;48.60;100855.97;7809379;29;20040;-65
2021/04/10 05:50:55;;;;;;;10.38;6.78;;;;;;;7.45;48.69;100852.50;7793372;29;20516;-64
2021/04/10 05:54:45;;;;;;;11.30;6.25;;;;;;;7.46;48.90;100848.13;7800396;29;20036;-65
2021/04/10 05:58:36;;;;;;;11.55;6.88;;;;;;;7.49;48.60;100855.81;7794118;29;20048;-66
2021/04/10 06:02:27;;;;;;;11.55;6.65;;;;;;;7.54;49.06;100860.78;7793412;29;20039;-65
2021/04/10 06:06:17;;;;;;;9.57;5.95;;;;;;;7.56;48.72;100866.75;7792030;29;20048;-66
2021/04/10 06:10:08;;;;;;;7.43;5.80;;;;;;;7.59;49.04;100866.63;7794296;29;20040;-65
2021/04/10 06:13:59;;;;;;;20.83;6.80;;;;;;;7.60;49.26;100871.75;7791758;29;20257;-66
2021/04/10 06:17:50;;;;;;;11.88;6.95;;;;;;;7.62;48.93;100864.69;7815019;29;20447;-65
2021/04/10 06:21:41;;;;;;;8.85;6.80;;;;;;;7.64;48.79;100865.44;7824247;29;20032;-65
2021/04/10 06:25:31;;;;;;;9.20;6.65;;;;;;;7.66;48.75;100865.34;7821078;29;20923;-65
2021/04/10 06:29:22;;;;;;;9.77;6.60;;;;;;;7.67;49.08;100867.88;7823580;29;20043;-66
2021/04/10 06:33:12;;;;;;;9.15;6.82;;;;;;;7.68;49.02;100868.72;7799229;29;20040;-66
2021/04/10 06:37:03;;;;;;;12.43;7.63;;;;;;;7.73;49.22;100871.94;7794169;29;20040;-65
2021/04/10 06:40:55;;;;;;;9.85;6.80;;;;;;;7.75;49.07;100859.63;7793033;29;20036;-66
2021/04/10 06:44:46;;;;;;;10.00;6.85;;;;;;;7.81;49.44;100861.91;7792804;29;20050;-66
2021/04/10 06:48:43;;;;;;;11.73;6.95;;;;;;;7.85;49.40;100866.03;7820197;29;20122;-65
2021/04/10 06:52:39;;;;;;;11.85;7.10;;;;;;;7.90;49.45;100861.41;7822750;29;20036;-65
2021/04/10 06:56:32;;;;;;;9.40;6.50;;;;;;;7.98;49.35;100867.06;7821741;29;20028;-65
2021/04/10 07:00:24;;;;;;;9.30;6.55;;;;;;;8.09;49.04;100882.16;7820932;29;20035;-66
2021/04/10 07:04:15;;;;;;;11.25;6.38;;;;;;;8.16;49.64;100878.31;7775317;29;20459;-65
2021/04/10 07:08:06;;;;;;;10.38;6.75;;;;;;;8.23;49.31;100885.72;7792626;29;20123;-65
2021/04/10 07:11:57;;;;;;;8.60;6.68;;;;;;;8.32;49.59;100881.75;7791452;29;20039;-65
2021/04/10 07:15:47;;;;;;;11.98;6.53;;;;;;;8.44;49.58;100886.28;7797017;29;20043;-66
2021/04/10 07:19:38;;;;;;;9.63;7.18;;;;;;;8.58;49.49;100888.94;7822190;29;20031;-65
2021/04/10 07:23:44;;;;;;;10.43;7.10;;;;;;;8.69;49.65;100881.34;7811968;29;20435;-65
2021/04/10 07:27:35;;;;;;;8.45;6.43;;;;;;;8.77;49.54;100899.22;7821794;29;20532;-65
2021/04/10 07:31:33;;;;;;;11.80;6.78;;;;;;;8.82;49.54;100894.56;7812315;29;20122;-65
2021/04/10 07:35:40;;;;;;;12.38;7.18;;;;;;;8.89;49.68;100901.13;7815539;29;20050;-67
2021/04/10 07:39:44;;;;;;;12.93;7.75;;;;;;;8.99;49.52;100901.44;7820367;29;20039;-65
2021/04/10 07:43:39;;;;;;;11.23;6.32;;;;;;;9.11;49.46;100905.97;7821161;29;20115;-65
2021/04/10 07:47:35;;;;;;;12.55;7.68;;;;;;;9.24;49.56;100907.78;7820699;29;20039;-66
2021/04/10 07:51:27;;;;;;;10.93;7.47;;;;;;;9.38;50.02;100901.69;7821516;29;20400;-65
2021/04/10 07:55:41;;;;;;;11.25;7.28;;;;;;;9.58;49.87;100906.56;7810078;29;20031;-65
2021/04/10 07:59:45;;;;;;;10.05;6.78;;;;;;;9.84;49.51;100898.88;7819795;29;20400;-65
2021/04/10 08:03:51;;;;;;;13.02;7.30;;;;;;;10.07;49.88;100900.91;7809200;29;20515;-65
2021/04/10 08:07:51;;;;;;;10.73;7.20;;;;;;;10.24;49.52;100898.03;7815617;29;20052;-66
2021/04/10 08:11:42;;;;;;;11.60;7.40;;;;;;;10.38;49.10;100897.16;7814662;29;20050;-66
2021/04/10 08:15:33;;;;;;;15.45;8.18;;;;;;;10.45;49.04;100903.69;7820426;29;20666;-65
2021/04/10 08:19:32;;;;;;;11.13;7.32;;;;;;;10.48;49.21;100906.13;7821228;29;20028;-64
2021/04/10 08:23:22;;;;;;;14.45;8.75;;;;;;;10.47;49.12;100910.53;7820617;29;20028;-65
2021/04/10 08:27:14;;;;;;;11.15;7.95;;;;;;;10.46;49.05;100903.59;7821243;29;20042;-65
2021/04/10 08:31:05;;;;;;;12.30;8.15;;;;;;;10.46;49.15;100908.00;7806728;29;20035;-64
2021/04/10 08:34:56;;;;;;;10.25;7.60;;;;;;;10.48;48.94;100912.22;7818881;29;20071;-65
2021/04/10 08:38:46;;;;;;;9.02;7.22;;;;;;;10.46;49.09;100915.88;7811036;29;20143;-64
2021/04/10 08:42:41;;;;;;;11.10;7.97;;;;;;;10.48;49.16;100916.63;7821133;29;20039;-65
2021/04/10 08:46:32;;;;;;;10.65;7.93;;;;;;;10.47;49.09;100910.53;7822580;29;20036;-65
2021/04/10 08:50:23;;;;;;;12.10;8.25;;;;;;;10.43;49.00;100911.69;7827377;29;20032;-64
2021/04/10 08:54:15;;;;;;;14.30;8.77;;;;;;;10.47;48.99;100914.94;7822346;29;20444;-64
2021/04/10 08:58:28;;;;;;;10.02;6.25;;;;;;;10.52;48.77;100908.50;7826834;29;20047;-64
2021/04/10 09:02:21;;;;;;;11.45;7.32;;;;;;;10.62;48.89;100911.34;7826264;29;20031;-64
2021/04/10 09:06:30;;;;;;;12.75;6.90;;;;;;;10.67;48.89;100923.25;7826664;29;20126;-64
2021/04/10 09:10:24;;;;;;;8.88;5.68;;;;;;;10.75;48.72;100916.63;7825128;29;20035;-64
2021/04/10 09:14:47;;;;;;;10.40;6.95;;;;;;;10.78;48.73;100909.38;7818551;29;20035;-64
2021/04/10 09:18:38;;;;;;;10.65;6.65;;;;;;;10.82;48.58;100910.06;7826111;29;20095;-64
2021/04/10 09:22:38;;;;;;;11.07;7.32;;;;;;;10.80;48.47;100917.19;7825631;29;20424;-64
2021/04/10 09:26:29;;;;;;;9.75;6.97;;;;;;;10.76;48.74;100916.53;7825422;29;20594;-65
2021/04/10 09:30:36;;;;;;;10.93;6.80;;;;;;;10.77;48.69;100920.03;7825469;29;20708;-64
2021/04/10 09:34:46;;;;;;;11.85;7.32;;;;;;;10.78;48.86;100924.34;7823965;29;20086;-64
2021/04/10 09:38:41;;;;;;;10.43;7.97;;;;;;;10.77;48.48;100917.38;7825622;29;20051;-64
2021/04/10 09:42:38;;;;;;;11.52;8.20;;;;;;;10.72;48.61;100920.31;7825464;29;20110;-65
2021/04/10 09:46:35;;;;;;;11.95;7.90;;;;;;;10.69;48.65;100926.59;7823077;29;20047;-64
2021/04/10 09:50:41;;;;;;;11.60;7.17;;;;;;;10.64;48.56;100918.19;7825680;29;20043;-65
2021/04/10 09:54:32;;;;;;;11.98;7.65;;;;;;;10.58;48.52;100913.34;7824989;29;20416;-65
2021/04/10 09:58:26;;;;;;;12.25;8.10;;;;;;;10.55;48.47;100915.31;7824062;29;20031;-64
2021/04/10 10:02:26;;;;;;;9.30;6.30;;;;;;;10.47;48.60;100909.69;7808168;29;20036;-65
2021/04/10 10:06:18;;;;;;;10.43;6.40;;;;;;;10.44;48.71;100912.53;7795013;29;20036;-64
2021/04/10 10:10:10;;;;;;;9.73;6.38;;;;;;;10.43;48.71;100916.09;7794360;29;20091;-64
2021/04/10 10:14:00;;;;;;;8.77;6.70;;;;;;;10.44;48.66;100904.66;7794383;29;20047;-64
2021/04/10 10:17:51;;;;;;;8.88;6.03;;;;;;;10.44;48.78;100907.28;7815731;29;20047;-67
2021/04/10 10:21:41;;;;;;;8.27;6.57;;;;;;;10.41;48.84;100905.66;7824625;29;20098;-64
2021/04/10 10:25:33;;;;;;;10.20;6.88;;;;;;;10.40;48.86;100896.13;7824629;29;20039;-64
2021/04/10 10:29:24;;;;;;;8.82;6.75;;;;;;;10.40;49.05;100906.63;7823691;29;20048;-64
2021/04/10 10:33:14;;;;;;;9.57;6.95;;;;;;;10.41;49.01;100892.53;7823264;29;20048;-65
2021/04/10 10:37:05;;;;;;;15.60;7.53;;;;;;;10.42;49.00;100891.59;7823680;29;20046;-65
2021/04/10 10:40:56;;;;;;;10.07;7.65;;;;;;;10.43;48.98;100893.31;7824037;29;20043;-66
2021/04/10 10:44:47;;;;;;;9.70;7.80;;;;;;;10.44;49.08;100873.13;7810639;29;20090;-64
2021/04/10 10:48:40;;;;;;;12.38;8.70;;;;;;;10.45;49.29;100880.88;7795608;29;20043;-65
2021/04/10 10:52:31;;;;;;;11.85;7.72;;;;;;;10.40;49.14;100877.75;7776193;29;20032;-65
2021/04/10 10:56:25;;;;;;;11.05;7.90;;;;;;;10.39;49.08;100869.97;7793100;29;20036;-65
2021/04/10 11:00:16;;;;;;;19.23;8.40;;;;;;;10.37;49.38;100862.16;7794184;29;20070;-64
2021/04/10 11:04:10;;;;;;;11.60;8.27;;;;;;;10.36;49.37;100860.50;7823465;29;20028;-65
2021/04/10 11:08:02;;;;;;;11.50;8.90;;;;;;;10.31;49.43;100844.22;7823481;29;20035;-67
2021/04/10 11:11:56;;;;;;;13.02;9.60;;;;;;;10.29;49.54;100837.34;7823144;29;20077;-65
2021/04/10 11:15:48;;;;;;;15.05;9.73;;;;;;;10.25;49.71;100840.19;7809859;29;20040;-66
2021/04/10 11:19:43;;;;;;;12.63;9.05;;;;;;;10.25;49.62;100832.31;7792774;29;20567;-64
2021/04/10 11:24:00;;;;;;;14.90;9.63;;;;;;;10.25;49.70;100831.47;7792624;29;20036;-64
2021/04/10 11:27:50;;;;;;;13.18;9.52;;;;;;;10.26;49.80;100825.28;7768934;29;20596;-64
2021/04/10 11:31:41;;;;;;;13.95;9.30;;;;;;;10.27;49.84;100826.97;7803815;29;20048;-64
2021/04/10 11:35:32;;;;;;;12.30;9.48;;;;;;;10.28;50.04;100828.63;7821725;29;20034;-65
2021/04/10 11:39:23;;;;;;;14.13;10.10;;;;;;;10.30;50.08;100823.28;7821952;29;20039;-65
2021/04/10 11:43:13;;;;;;;13.10;9.13;;;;;;;10.30;50.33;100818.03;7822162;29;20090;-65
2021/04/10 11:47:04;;;;;;;12.75;9.35;;;;;;;10.32;50.05;100810.91;7821203;29;20035;-66
2021/04/10 11:50:57;;;;;;;11.75;8.90;;;;;;;10.32;50.32;100806.50;7821762;29;20050;-66
2021/04/10 11:54:47;;;;;;;12.75;8.82;;;;;;;10.34;50.08;100796.72;7820870;29;20043;-64
2021/04/10 11:58:38;;;;;;;13.23;8.68;;;;;;;10.40;50.36;100790.25;7821654;29;20039;-65
2021/04/10 12:02:33;;;;;;;12.68;9.52;;;;;;;10.46;50.38;100789.81;7802602;29;20040;-64
2021/04/10 12:06:35;;;;;;;9.00;7.15;;;;;;;10.52;50.41;100786.81;7791088;29;20458;-63
2021/04/10 12:10:25;;;;;;;9.15;7.50;;;;;;;10.54;50.38;100780.53;7791013;29;20046;-63
2021/04/10 12:14:16;;;;;;;9.43;7.25;;;;;;;10.55;50.36;100770.84;7791121;29;20032;-64
2021/04/10 12:18:10;;;;;;;9.25;7.10;;;;;;;10.56;50.45;100764.66;7790925;29;20119;-63
2021/04/10 12:22:00;;;;;;;8.88;6.50;;;;;;;10.51;49.85;100758.88;7790041;29;20146;-63
2021/04/10 12:25:51;;;;;;;8.63;5.97;;;;;;;10.46;50.32;100751.28;7790770;29;20618;-63
2021/04/10 12:29:41;;;;;;;8.32;6.10;;;;;;;10.42;50.13;100751.56;7790404;29;20394;-63
2021/04/10 12:33:32;;;;;;;11.65;6.55;;;;;;;10.37;50.12;100761.53;7789968;29;20051;-63
2021/04/10 12:37:23;;;;;;;9.90;5.85;;;;;;;10.33;50.20;100762.69;7790027;29;21038;-63
2021/04/10 12:41:14;;;;;;;8.13;5.53;;;;;;;10.30;50.09;100755.88;7790506;29;20031;-63
2021/04/10 12:45:07;;;;;;;8.02;4.97;;;;;;;10.28;50.27;100746.44;7790995;29;20032;-64
2021/04/10 12:48:57;;;;;;;7.95;5.43;;;;;;;10.24;50.16;100740.50;7789830;29;20595;-63
2021/04/10 12:52:49;;;;;;;8.15;4.72;;;;;;;10.21;50.02;100744.19;7789887;29;20777;-64
2021/04/10 12:56:40;;;;;;;9.50;5.47;;;;;;;10.20;50.09;100744.28;7790757;29;20152;-65
2021/04/10 13:00:31;;;;;;;8.30;4.47;;;;;;;10.18;50.17;100741.78;7788627;29;20111;-63
2021/04/10 13:04:23;;;;;;;7.93;5.15;;;;;;;10.13;50.21;100732.53;7789893;29;20028;-63
2021/04/10 13:08:14;;;;;;;10.77;5.30;;;;;;;10.12;50.29;100736.06;7788712;29;20590;-64
2021/04/10 13:12:05;;;;;;;8.57;5.10;;;;;;;10.11;50.30;100729.16;7790099;29;20485;-63
2021/04/10 13:15:56;;;;;;;7.28;4.53;;;;;;;10.09;50.59;100729.25;7796303;29;20469;-63
2021/04/10 13:19:47;;;;;;;10.77;4.82;;;;;;;10.06;50.52;100713.72;7820230;29;20502;-65
2021/04/10 13:23:37;;;;;;;6.05;4.38;;;;;;;10.08;50.51;100706.56;7820212;29;20055;-64
2021/04/10 13:27:28;;;;;;;9.18;5.13;;;;;;;10.10;50.61;100704.69;7820494;29;20488;-64
2021/04/10 13:31:19;;;;;;;7.97;5.25;;;;;;;10.10;50.60;100686.31;7819482;29;20044;-63
2021/04/10 13:35:10;;;;;;;7.88;4.97;;;;;;;10.12;50.75;100691.44;7825034;29;20035;-63
2021/04/10 13:39:00;;;;;;;8.82;4.85;;;;;;;10.11;50.42;100692.41;7825321;29;20096;-63
2021/04/10 13:42:51;;;;;;;5.57;4.03;;;;;;;10.10;50.64;100678.47;7825851;29;20062;-63
2021/04/10 13:46:42;;;;;;;6.53;4.13;;;;;;;10.09;50.92;100674.13;7824424;29;20066;-65
2021/04/10 13:50:32;;;;;;;6.15;4.72;;;;;;;10.04;50.80;100670.97;7825344;29;20070;-63
2021/04/10 13:54:23;;;;;;;6.00;4.72;;;;;;;10.04;50.51;100673.59;7824582;29;20028;-64
2021/04/10 13:58:14;;;;;;;7.25;5.70;;;;;;;10.01;50.90;100655.44;7816105;29;20039;-64
2021/04/10 14:02:05;;;;;;;8.23;5.18;;;;;;;9.98;51.05;100665.31;7824705;29;20035;-65
2021/04/10 14:05:55;;;;;;;6.00;4.35;;;;;;;9.96;51.00;100651.44;7824867;29;20419;-65
2021/04/10 14:09:46;;;;;;;7.28;4.72;;;;;;;9.96;51.09;100644.41;7824701;29;20048;-64
2021/04/10 14:13:38;;;;;;;8.57;5.22;;;;;;;9.97;51.43;100645.25;7824808;29;20043;-65
2021/04/10 14:17:29;;;;;;;8.55;4.85;;;;;;;9.95;51.23;100640.09;7824587;29;20067;-64
2021/04/10 14:21:20;;;;;;;7.25;5.18;;;;;;;9.94;51.21;100629.72;7815381;29;20578;-65
2021/04/10 14:25:12;;;;;;;6.25;4.38;;;;;;;9.91;51.17;100633.38;7824278;29;20032;-64
2021/04/10 14:29:02;;;;;;;7.53;4.90;;;;;;;9.91;51.44;100633.38;7824373;29;20478;-64
2021/04/10 14:32:53;;;;;;;7.63;4.90;;;;;;;9.90;51.52;100631.72;7820910;29;20051;-65
2021/04/10 14:36:44;;;;;;;5.93;4.57;;;;;;;9.88;51.50;100607.34;7823927;29;20500;-63
2021/04/10 14:40:35;;;;;;;6.68;4.93;;;;;;;9.87;51.80;100592.53;7817689;29;20036;-63
2021/04/10 14:44:26;;;;;;;7.85;5.18;;;;;;;9.88;51.65;100591.59;7823122;29;20039;-64
2021/04/10 14:48:18;;;;;;;6.53;4.90;;;;;;;9.86;51.75;100585.63;7823044;29;20042;-63
2021/04/10 14:52:09;;;;;;;7.20;5.13;;;;;;;9.86;51.65;100574.31;7816365;29;20047;-64
2021/04/10 14:56:02;;;;;;;7.57;4.88;;;;;;;9.83;51.61;100559.59;7823275;29;20038;-63
2021/04/10 14:59:53;;;;;;;7.25;5.47;;;;;;;9.82;51.87;100557.09;7823423;29;20046;-64
2021/04/10 15:03:44;;;;;;;5.82;4.65;;;;;;;9.78;51.68;100548.59;7822344;29;20036;-64
2021/04/10 15:07:35;;;;;;;8.70;4.63;;;;;;;9.74;51.66;100534.81;7822224;29;20116;-64
2021/04/10 15:11:26;;;;;;;6.82;4.95;;;;;;;9.73;51.94;100530.53;7816065;29;20098;-64
2021/04/10 15:15:19;;;;;;;8.70;5.40;;;;;;;9.71;52.46;100518.44;7820429;29;20039;-65
2021/04/10 15:19:12;;;;;;;10.20;6.03;;;;;;;9.70;52.25;100516.78;7793041;29;20028;-64
2021/04/10 15:23:02;;;;;;;6.65;4.45;;;;;;;9.66;52.07;100502.19;7792407;29;20036;-65
2021/04/10 15:26:53;;;;;;;6.65;4.35;;;;;;;9.58;52.24;100489.59;7775769;29;20038;-64
2021/04/10 15:30:44;;;;;;;5.10;3.92;;;;;;;9.57;52.36;100492.34;7792120;29;20127;-63
2021/04/10 15:34:35;;;;;;;5.88;4.10;;;;;;;9.54;52.19;100488.13;7791593;29;20553;-65
2021/04/10 15:38:26;;;;;;;6.18;3.85;;;;;;;9.52;52.45;100478.69;7791829;29;20096;-64
2021/04/10 15:42:20;;;;;;;5.13;4.00;;;;;;;9.47;52.50;100479.00;7791431;29;20441;-63
2021/04/10 15:46:11;;;;;;;6.15;4.40;;;;;;;9.41;52.77;100455.00;7782806;29;20039;-64
2021/04/10 15:50:03;;;;;;;6.22;4.47;;;;;;;9.39;52.67;100447.22;7821910;29;20043;-63
2021/04/10 15:53:54;;;;;;;6.22;4.22;;;;;;;9.38;52.49;100447.31;7821018;29;20050;-66
2021/04/10 15:57:45;;;;;;;5.25;4.05;;;;;;;9.39;52.75;100446.38;7813391;29;20046;-63
2021/04/10 16:01:36;;;;;;;5.13;4.07;;;;;;;9.39;52.78;100446.38;7808740;29;20047;-65
2021/04/10 16:05:27;;;;;;;7.70;4.22;;;;;;;9.38;52.76;100440.28;7821340;29;20034;-63
2021/04/10 16:09:17;;;;;;;5.85;4.20;;;;;;;9.38;53.06;100424.56;7821381;29;20126;-63
2021/04/10 16:13:08;;;;;;;5.60;4.43;;;;;;;9.39;53.00;100428.03;7806313;29;20706;-64
2021/04/10 16:16:59;;;;;;;4.95;4.28;;;;;;;9.43;52.99;100419.00;7794720;29;20047;-64
2021/04/10 16:20:49;;;;;;;5.68;4.50;;;;;;;9.43;53.09;100421.63;7778538;29;20500;-63
2021/04/10 16:24:40;;;;;;;5.60;4.10;;;;;;;9.42;53.33;100409.47;7790600;29;20052;-65
2021/04/10 16:28:30;;;;;;;6.13;4.82;;;;;;;9.45;53.19;100409.28;7791116;29;20036;-63
2021/04/10 16:32:21;;;;;;;5.32;4.15;;;;;;;9.47;53.16;100404.75;7807321;29;20035;-63
2021/04/10 16:36:12;;;;;;;5.63;4.63;;;;;;;9.47;53.46;100397.72;7820589;29;20036;-63
2021/04/10 16:40:04;;;;;;;5.40;4.40;;;;;;;9.49;53.51;100397.63;7820776;29;20204;-63
2021/04/10 16:43:55;;;;;;;5.03;4.13;;;;;;;9.49;53.49;100392.38;7820233;29;20079;-64
2021/04/10 16:47:46;;;;;;;5.85;4.30;;;;;;;9.53;53.70;100386.81;7799194;29;20040;-63
2021/04/10 16:51:37;;;;;;;6.65;4.18;;;;;;;9.54;53.41;100388.47;7790680;29;20495;-63
2021/04/10 16:55:28;;;;;;;7.22;4.20;;;;;;;9.55;53.61;100394.56;7790272;29;20043;-63
2021/04/10 16:59:19;;;;;;;7.53;4.40;;;;;;;9.54;54.03;100377.97;7790545;29;20665;-63
2021/04/10 17:03:10;;;;;;;5.28;4.28;;;;;;;9.53;53.68;100386.81;7813575;29;20036;-63
2021/04/10 17:07:00;;;;;;;5.00;3.47;;;;;;;9.55;53.82;100377.06;7821426;29;20159;-63
2021/04/10 17:10:51;;;;;;;5.30;3.78;;;;;;;9.55;53.67;100374.44;7826208;29;20090;-64
2021/04/10 17:14:41;;;;;;;5.68;3.90;;;;;;;9.56;53.92;100378.72;7826398;29;20070;-64
2021/04/10 17:18:32;;;;;;;7.30;4.82;;;;;;;9.54;53.94;100367.50;7823554;29;20400;-63
2021/04/10 17:22:23;;;;;;;4.95;3.97;;;;;;;9.56;53.92;100368.25;7825769;29;20724;-63
2021/04/10 17:26:14;;;;;;;5.88;3.78;;;;;;;9.56;54.21;100365.63;7826213;29;20057;-61
2021/04/10 17:30:06;;;;;;;5.72;4.07;;;;;;;9.54;53.97;100362.25;7818140;29;20051;-65
2021/04/10 17:33:57;;;;;;;4.82;3.75;;;;;;;9.60;54.12;100368.88;7795210;29;20052;-65
2021/04/10 17:37:47;;;;;;;3.50;2.88;;;;;;;9.63;53.98;100371.25;7795482;29;20596;-64
2021/04/10 17:41:38;;;;;;;3.45;2.90;;;;;;;9.65;54.02;100358.91;7795055;29;20127;-62
2021/04/10 17:45:29;;;;;;;5.25;3.65;;;;;;;9.65;54.17;100351.03;7797540;29;20501;-64
2021/04/10 17:49:20;;;;;;;4.03;2.97;;;;;;;9.69;53.95;100362.97;7825265;29;20047;-63
2021/04/10 17:53:24;;;;;;;5.22;3.35;;;;;;;9.68;54.20;100351.66;7825027;29;20050;-65
2021/04/10 17:57:15;;;;;;;6.53;3.97;;;;;;;9.66;54.13;100350.06;7815062;29;20480;-71
2021/04/10 18:01:07;;;;;;;5.20;3.67;;;;;;;9.69;54.13;100347.25;7816454;29;20040;-65
2021/04/10 18:04:57;;;;;;;6.88;3.88;;;;;;;9.72;54.01;100358.34;7790941;29;20056;-66